createdAt,value
2023-04-18T00:01:23.880Z,8.70
2023-04-18T00:03:51.100Z,8.69
2023-04-18T00:06:17.908Z,8.66
2023-04-18T00:08:44.387Z,8.64
2023-04-18T00:11:15.459Z,8.62
2023-04-18T00:13:41.963Z,8.57
2023-04-18T00:16:08.697Z,8.49
2023-04-18T00:18:36.908Z,8.45
2023-04-18T00:21:04.361Z,8.42
2023-04-18T00:23:31.156Z,8.39
2023-04-18T00:25:57.603Z,8.32
2023-04-18T00:28:24.044Z,8.31
2023-04-18T00:30:50.707Z,8.30
2023-04-18T00:33:18.592Z,8.24
2023-04-18T00:35:45.191Z,8.22
2023-04-18T00:38:11.648Z,8.20
2023-04-18T00:40:38.799Z,8.19
2023-04-18T00:43:07.692Z,8.16
2023-04-18T00:45:34.479Z,8.13
2023-04-18T00:48:01.492Z,8.08
2023-04-18T00:50:28.052Z,8.06
2023-04-18T00:52:54.654Z,8.04
2023-04-18T00:55:22.066Z,8.01
2023-04-18T00:57:48.467Z,7.97
2023-04-18T01:00:15.491Z,7.91
2023-04-18T01:02:42.320Z,7.86
2023-04-18T01:05:09.098Z,7.84
2023-04-18T01:07:39.538Z,7.78
2023-04-18T01:10:06.802Z,7.76
2023-04-18T01:12:33.250Z,7.70
2023-04-18T01:15:00.741Z,7.66
2023-04-18T01:17:28.449Z,7.62
2023-04-18T01:19:55.032Z,7.60
2023-04-18T01:22:21.515Z,7.57
2023-04-18T01:24:47.960Z,7.53
2023-04-18T01:27:14.508Z,7.49
2023-04-18T01:29:41.348Z,7.48
2023-04-18T01:32:08.042Z,7.45
2023-04-18T01:34:34.567Z,7.42
2023-04-18T01:37:00.990Z,7.41
2023-04-18T01:39:28.406Z,7.38
2023-04-18T01:41:54.842Z,7.37
2023-04-18T01:44:21.360Z,7.35
2023-04-18T01:46:47.860Z,7.33
2023-04-18T01:49:16.040Z,7.27
2023-04-18T01:51:43.123Z,7.24
2023-04-18T01:54:09.662Z,7.22
2023-04-18T01:56:36.374Z,7.21
2023-04-18T01:59:02.889Z,7.19
2023-04-18T02:01:29.430Z,7.17
2023-04-18T02:03:56.056Z,7.15
2023-04-18T02:06:22.712Z,7.12
2023-04-18T02:08:49.202Z,7.08
2023-04-18T02:11:15.691Z,7.06
2023-04-18T02:13:42.236Z,7.03
2023-04-18T02:16:12.946Z,7.02
2023-04-18T02:18:40.152Z,6.97
2023-04-18T02:21:07.229Z,6.95
2023-04-18T02:23:33.725Z,6.91
2023-04-18T02:26:00.272Z,6.90
2023-04-18T02:28:26.703Z,6.87
2023-04-18T02:30:53.177Z,6.85
2023-04-18T02:33:20.484Z,6.81
2023-04-18T02:35:47.224Z,6.75
2023-04-18T02:38:13.856Z,6.73
2023-04-18T02:40:40.368Z,6.70
2023-04-18T02:43:06.880Z,6.67
2023-04-18T02:45:33.482Z,6.66
2023-04-18T02:48:01.373Z,6.63
2023-04-18T02:50:29.105Z,6.60
2023-04-18T02:52:55.927Z,6.55
2023-04-18T02:55:22.802Z,6.52
2023-04-18T02:57:49.236Z,6.49
2023-04-18T03:00:16.080Z,6.48
2023-04-18T03:02:42.649Z,6.44
2023-04-18T03:05:09.383Z,6.39
2023-04-18T03:07:39.064Z,6.38
2023-04-18T03:10:05.966Z,6.35
2023-04-18T03:12:32.505Z,6.31
2023-04-18T03:14:58.986Z,6.31
2023-04-18T03:17:25.629Z,6.28
2023-04-18T03:19:52.116Z,6.29
2023-04-18T03:22:18.593Z,6.27
2023-04-18T03:24:45.093Z,6.22
2023-04-18T03:27:13.150Z,6.19
2023-04-18T03:29:41.145Z,6.16
2023-04-18T03:32:07.559Z,6.13
2023-04-18T03:34:34.087Z,6.12
2023-04-18T03:37:01.141Z,6.09
2023-04-18T03:39:27.588Z,6.06
2023-04-18T03:41:54.218Z,6.03
2023-04-18T03:44:20.635Z,6.00
2023-04-18T03:46:47.152Z,5.98
2023-04-18T03:49:13.655Z,5.94
2023-04-18T03:51:47.268Z,5.93
2023-04-18T03:54:14.706Z,5.90
2023-04-18T03:56:41.706Z,5.86
2023-04-18T03:59:08.359Z,5.84
2023-04-18T04:01:34.857Z,5.87
2023-04-18T04:04:02.850Z,5.88
2023-04-18T04:06:29.816Z,5.88
2023-04-18T04:08:56.240Z,5.92
2023-04-18T04:11:23.037Z,5.93
2023-04-18T04:13:49.563Z,5.96
2023-04-18T04:16:16.132Z,6.00
2023-04-18T04:18:42.614Z,6.01
2023-04-18T04:21:09.084Z,6.00
2023-04-18T04:23:35.501Z,6.03
2023-04-18T04:26:04.619Z,6.07
2023-04-18T04:28:31.560Z,6.08
2023-04-18T04:30:58.060Z,6.08
2023-04-18T04:33:28.722Z,6.12
2023-04-18T04:35:56.257Z,6.11
2023-04-18T04:38:25.783Z,6.10
2023-04-18T04:40:52.905Z,6.09
2023-04-18T04:43:20.578Z,6.10
2023-04-18T04:45:51.612Z,6.13
2023-04-18T04:48:19.952Z,6.15
2023-04-18T04:50:57.687Z,6.14
2023-04-18T04:53:27.916Z,6.16
2023-04-18T04:55:54.349Z,6.16
2023-04-18T04:58:20.868Z,6.14
2023-04-18T05:00:47.923Z,6.15
2023-04-18T05:03:14.584Z,6.17
2023-04-18T05:05:41.390Z,6.22
2023-04-18T05:08:07.992Z,6.22
2023-04-18T05:10:37.088Z,6.23
2023-04-18T05:13:04.268Z,6.18
2023-04-18T05:15:31.624Z,6.20
2023-04-18T05:17:58.823Z,6.21
2023-04-18T05:20:25.527Z,6.21
2023-04-18T05:22:52.111Z,6.24
2023-04-18T05:25:19.028Z,6.26
2023-04-18T05:27:46.923Z,6.26
2023-04-18T05:30:13.575Z,6.29
2023-04-18T05:32:40.255Z,6.30
2023-04-18T05:35:07.839Z,6.33
2023-04-18T05:37:34.423Z,6.33
2023-04-18T05:40:01.293Z,6.34
2023-04-18T05:42:30.029Z,6.35
2023-04-18T05:44:56.586Z,6.37
2023-04-18T05:47:26.688Z,6.38
2023-04-18T05:49:53.176Z,6.38
2023-04-18T05:52:19.597Z,6.38
2023-04-18T05:54:47.608Z,6.42
2023-04-18T05:57:14.128Z,6.44
2023-04-18T05:59:40.653Z,6.45
2023-04-18T06:02:13.196Z,6.48
2023-04-18T06:04:41.804Z,6.48
2023-04-18T06:07:09.115Z,6.52
2023-04-18T06:09:35.817Z,6.56
2023-04-18T06:12:02.420Z,6.58
2023-04-18T06:14:28.905Z,6.60
2023-04-18T06:16:55.586Z,6.64
2023-04-18T06:19:22.203Z,6.68
2023-04-18T06:21:49.087Z,6.71
2023-04-18T06:24:15.758Z,6.77
2023-04-18T06:26:42.480Z,6.83
2023-04-18T06:29:08.955Z,6.88
2023-04-18T06:31:35.754Z,6.94
2023-04-18T06:34:02.325Z,7.00
2023-04-18T06:36:29.213Z,7.08
2023-04-18T06:38:55.650Z,7.17
2023-04-18T06:41:22.786Z,7.29
2023-04-18T06:44:02.105Z,7.38
2023-04-18T06:46:36.114Z,7.47
2023-04-18T06:49:02.628Z,7.53
2023-04-18T06:51:29.272Z,7.57
2023-04-18T06:53:55.912Z,7.63
2023-04-18T06:56:22.884Z,7.66
2023-04-18T06:58:50.156Z,7.72
2023-04-18T07:01:16.766Z,7.78
2023-04-18T07:03:43.513Z,7.82
2023-04-18T07:06:10.962Z,7.84
2023-04-18T07:08:38.004Z,7.89
2023-04-18T07:11:05.403Z,7.91
2023-04-18T07:13:32.018Z,7.93
2023-04-18T07:15:58.595Z,7.95
2023-04-18T07:18:36.694Z,7.95
2023-04-18T07:21:07.432Z,7.96
2023-04-18T07:23:34.312Z,7.98
2023-04-18T07:26:02.603Z,8.02
2023-04-18T07:28:31.987Z,8.05
2023-04-18T07:30:59.168Z,8.09
2023-04-18T07:33:25.833Z,8.13
2023-04-18T07:35:53.038Z,8.21
2023-04-18T07:38:19.662Z,8.28
2023-04-18T07:40:47.653Z,8.29
2023-04-18T07:43:14.096Z,8.33
2023-04-18T07:45:43.078Z,8.39
2023-04-18T07:48:09.667Z,8.48
2023-04-18T07:50:36.133Z,8.63
2023-04-18T07:53:03.339Z,8.71
2023-04-18T07:55:29.970Z,8.74
2023-04-18T07:57:56.395Z,8.72
2023-04-18T08:00:22.894Z,8.70
2023-04-18T08:02:49.485Z,8.83
2023-04-18T08:05:16.803Z,8.94
2023-04-18T08:07:43.390Z,9.05
2023-04-18T08:10:10.050Z,9.10
2023-04-18T08:12:36.779Z,9.18
2023-04-18T08:15:05.136Z,9.26
2023-04-18T08:17:33.133Z,9.31
2023-04-18T08:20:00.838Z,9.35
2023-04-18T08:22:27.304Z,9.44
2023-04-18T08:27:23.932Z,9.49
2023-04-18T08:29:50.465Z,9.60
2023-04-18T08:32:16.936Z,9.74
2023-04-18T08:34:43.481Z,9.90
2023-04-18T08:37:10.183Z,9.97
2023-04-18T08:39:37.044Z,9.99
2023-04-18T08:42:06.303Z,9.97
2023-04-18T08:44:35.448Z,10.01
2023-04-18T08:47:02.061Z,10.00
2023-04-18T08:49:28.704Z,9.95
2023-04-18T08:51:57.513Z,9.93
2023-04-18T08:54:25.079Z,9.94
2023-04-18T08:57:07.515Z,9.98
2023-04-18T08:59:35.594Z,10.01
2023-04-18T09:02:06.766Z,10.03
2023-04-18T09:04:37.479Z,10.06
2023-04-18T09:07:09.579Z,10.09
2023-04-18T09:09:51.340Z,10.21
2023-04-18T09:12:22.457Z,10.36
2023-04-18T09:14:59.668Z,10.37
2023-04-18T09:17:38.850Z,10.42
2023-04-18T09:20:06.290Z,10.44
2023-04-18T09:22:58.077Z,10.50
2023-04-18T09:25:29.145Z,10.60
2023-04-18T09:28:01.873Z,10.66
2023-04-18T09:30:33.034Z,10.71
2023-04-18T09:33:01.506Z,10.76
2023-04-18T09:35:28.472Z,10.78
2023-04-18T09:37:55.548Z,10.81
2023-04-18T09:40:23.379Z,10.78
2023-04-18T09:42:53.168Z,10.82
2023-04-18T09:45:20.586Z,10.90
2023-04-18T09:47:47.238Z,10.93
2023-04-18T09:50:16.574Z,10.98
2023-04-18T09:52:44.327Z,11.02
2023-04-18T09:55:14.268Z,11.05
2023-04-18T09:57:44.580Z,11.06
2023-04-18T10:00:24.811Z,11.07
2023-04-18T10:03:05.055Z,11.08
2023-04-18T10:05:34.163Z,11.06
2023-04-18T10:08:02.427Z,11.12
2023-04-18T10:10:30.850Z,11.12
2023-04-18T10:13:00.187Z,11.02
2023-04-18T10:15:29.171Z,11.00
2023-04-18T10:18:14.692Z,10.96
2023-04-18T10:20:42.349Z,10.95
2023-04-18T10:23:36.539Z,10.96
2023-04-18T10:26:04.818Z,11.06
2023-04-18T10:28:54.648Z,11.36
2023-04-18T10:31:23.487Z,11.41
2023-04-18T10:36:28.354Z,11.37
2023-04-18T10:39:23.419Z,11.43
2023-04-18T10:41:52.086Z,11.53
2023-04-18T10:44:24.932Z,11.74
2023-04-18T10:46:51.489Z,11.89
2023-04-18T10:49:27.280Z,11.90
2023-04-18T10:51:59.452Z,12.07
2023-04-18T10:54:30.692Z,12.41
2023-04-18T10:56:59.352Z,12.68
2023-04-18T10:59:26.958Z,12.87
2023-04-18T11:02:10.708Z,13.10
2023-04-18T11:04:38.017Z,13.37
2023-04-18T11:07:05.125Z,13.36
2023-04-18T11:09:31.868Z,13.44
2023-04-18T11:12:09.345Z,13.51
2023-04-18T11:14:41.639Z,13.43
2023-04-18T11:17:41.215Z,13.39
2023-04-18T11:20:13.679Z,13.34
2023-04-18T11:22:53.831Z,13.10
2023-04-18T11:25:25.774Z,12.98
2023-04-18T11:27:52.546Z,12.95
2023-04-18T11:30:19.186Z,12.84
2023-04-18T11:32:45.780Z,12.78
2023-04-18T11:35:13.852Z,12.80
2023-04-18T11:37:41.575Z,12.75
2023-04-18T11:40:12.324Z,12.88
2023-04-18T11:42:40.167Z,12.88
2023-04-18T11:45:12.680Z,12.87
2023-04-18T11:47:39.982Z,12.81
2023-04-18T11:50:08.547Z,12.80
2023-04-18T11:52:36.435Z,12.81
2023-04-18T11:55:23.938Z,12.80
2023-04-18T11:57:57.640Z,12.80
2023-04-18T12:00:35.929Z,12.81
2023-04-18T12:03:04.878Z,12.85
2023-04-18T12:05:33.720Z,12.85
2023-04-18T12:08:20.377Z,12.89
2023-04-18T12:10:50.579Z,12.98
2023-04-18T12:13:18.357Z,13.13
2023-04-18T12:15:46.593Z,13.28
2023-04-18T12:18:15.256Z,13.31
2023-04-18T12:20:46.685Z,13.30
2023-04-18T12:23:31.313Z,13.41
2023-04-18T12:26:11.451Z,13.34
2023-04-18T12:28:37.999Z,13.32
2023-04-18T12:31:07.955Z,13.32
2023-04-18T12:33:36.726Z,13.30
2023-04-18T12:36:05.787Z,13.26
2023-04-18T12:38:32.282Z,13.28
2023-04-18T12:40:58.790Z,13.24
2023-04-18T12:43:25.776Z,13.32
2023-04-18T12:45:56.447Z,13.63
2023-04-18T12:48:23.356Z,13.69
2023-04-18T12:50:49.830Z,13.59
2023-04-18T12:53:16.292Z,13.56
2023-04-18T12:55:42.952Z,13.47
2023-04-18T12:58:09.424Z,13.42
2023-04-18T13:00:36.115Z,13.44
2023-04-18T13:03:02.982Z,13.47
2023-04-18T13:05:33.578Z,13.42
2023-04-18T13:10:31.052Z,13.37
2023-04-18T13:12:57.551Z,13.38
2023-04-18T13:15:24.120Z,13.37
2023-04-18T13:17:50.717Z,13.39
2023-04-18T13:20:17.329Z,13.39
2023-04-18T13:22:44.893Z,13.35
2023-04-18T13:25:11.886Z,13.35
2023-04-18T13:27:41.788Z,13.38
2023-04-18T13:30:12.340Z,13.43
2023-04-18T13:32:40.364Z,13.51
2023-04-18T13:35:09.111Z,13.56
2023-04-18T13:37:36.717Z,13.60
2023-04-18T13:40:05.490Z,13.66
2023-04-18T13:42:37.112Z,13.70
2023-04-18T13:45:04.414Z,13.66
2023-04-18T13:47:31.066Z,13.66
2023-04-18T13:49:57.954Z,13.71
2023-04-18T13:52:25.080Z,13.77
2023-04-18T13:54:51.549Z,13.77
2023-04-18T13:57:18.041Z,13.84
2023-04-18T13:59:44.630Z,14.10
2023-04-18T14:02:11.364Z,14.50
2023-04-18T14:04:38.540Z,14.63
2023-04-18T14:07:06.362Z,14.61
2023-04-18T14:09:33.088Z,14.49
2023-04-18T14:11:59.682Z,14.44
2023-04-18T14:14:26.277Z,14.28
2023-04-18T14:16:53.759Z,14.19
2023-04-18T14:19:20.516Z,14.24
2023-04-18T14:21:47.873Z,14.25
2023-04-18T14:24:14.891Z,14.26
2023-04-18T14:26:41.981Z,14.26
2023-04-18T14:29:08.477Z,14.22
2023-04-18T14:31:35.241Z,14.18
2023-04-18T14:34:02.045Z,14.12
2023-04-18T14:36:28.596Z,14.04
2023-04-18T14:38:55.150Z,14.07
2023-04-18T14:41:21.803Z,14.15
2023-04-18T14:43:48.789Z,14.12
2023-04-18T14:46:18.853Z,14.11
2023-04-18T14:48:46.869Z,14.24
2023-04-18T14:51:15.914Z,14.39
2023-04-18T14:53:42.739Z,14.37
2023-04-18T14:56:09.500Z,14.51
2023-04-18T14:58:36.424Z,14.62
2023-04-18T15:01:04.174Z,14.53
2023-04-18T15:03:30.958Z,14.55
2023-04-18T15:05:57.763Z,14.68
2023-04-18T15:08:24.267Z,14.80
2023-04-18T15:10:50.752Z,14.92
2023-04-18T15:13:17.367Z,15.07
2023-04-18T15:15:51.342Z,15.17
2023-04-18T15:18:17.796Z,15.20
2023-04-18T15:20:44.293Z,15.18
2023-04-18T15:23:13.641Z,15.17
2023-04-18T15:25:41.206Z,15.09
2023-04-18T15:28:07.752Z,14.98
2023-04-18T15:30:34.482Z,14.88
2023-04-18T15:33:02.447Z,14.98
2023-04-18T15:35:29.130Z,15.11
2023-04-18T15:37:56.503Z,15.16
2023-04-18T15:40:23.578Z,15.25
2023-04-18T15:42:50.989Z,15.33
2023-04-18T15:45:17.478Z,15.42
2023-04-18T15:47:44.244Z,15.52
2023-04-18T15:50:11.222Z,15.45
2023-04-18T15:52:38.209Z,15.37
2023-04-18T15:55:05.318Z,15.40
2023-04-18T15:57:32.359Z,15.38
2023-04-18T15:59:59.601Z,15.29
2023-04-18T16:02:26.569Z,15.18
2023-04-18T16:04:53.186Z,15.03
2023-04-18T16:07:19.854Z,15.06
2023-04-18T16:09:46.378Z,14.98
2023-04-18T16:12:12.800Z,15.01
2023-04-18T16:14:39.248Z,15.09
2023-04-18T16:17:05.734Z,15.21
2023-04-18T16:19:33.383Z,15.24
2023-04-18T16:22:01.609Z,15.19
2023-04-18T16:24:30.126Z,15.17
2023-04-18T16:26:56.765Z,15.06
2023-04-18T16:29:23.893Z,14.88
2023-04-18T16:31:51.900Z,14.78
2023-04-18T16:34:18.845Z,14.73
2023-04-18T16:36:45.383Z,14.81
2023-04-18T16:39:12.240Z,14.84
2023-04-18T16:41:38.848Z,14.72
2023-04-18T16:44:05.317Z,14.69
2023-04-18T16:46:32.434Z,14.64
2023-04-18T16:49:01.505Z,14.61
2023-04-18T16:51:28.895Z,14.59
2023-04-18T16:53:55.339Z,14.58
2023-04-18T16:56:21.925Z,14.55
2023-04-18T16:58:50.846Z,14.53
2023-04-18T17:01:17.328Z,14.51
2023-04-18T17:03:44.691Z,14.50
2023-04-18T17:06:11.303Z,14.46
2023-04-18T17:08:37.915Z,14.38
2023-04-18T17:11:04.871Z,14.33
2023-04-18T17:13:31.627Z,14.30
2023-04-18T17:15:58.703Z,14.27
2023-04-18T17:18:25.600Z,14.18
2023-04-18T17:20:52.601Z,14.17
2023-04-18T17:23:19.474Z,14.14
2023-04-18T17:25:46.280Z,14.12
2023-04-18T17:28:13.935Z,14.14
2023-04-18T17:30:44.394Z,14.14
2023-04-18T17:33:11.168Z,14.17
2023-04-18T17:35:41.394Z,14.17
2023-04-18T17:38:10.534Z,14.15
2023-04-18T17:40:37.429Z,14.12
2023-04-18T17:43:03.950Z,14.09
2023-04-18T17:45:30.873Z,14.00
2023-04-18T17:47:59.483Z,13.91
2023-04-18T17:50:26.191Z,13.87
2023-04-18T17:52:53.268Z,13.82
2023-04-18T17:55:19.962Z,13.79
2023-04-18T17:57:46.733Z,13.78
2023-04-18T18:00:14.487Z,13.76
2023-04-18T18:02:42.481Z,13.74
2023-04-18T18:05:13.736Z,13.71
2023-04-18T18:07:43.114Z,13.65
2023-04-18T18:10:11.046Z,13.60
2023-04-18T18:12:39.437Z,13.55
2023-04-18T18:15:07.784Z,13.52
2023-04-18T18:17:34.333Z,13.45
2023-04-18T18:20:00.846Z,13.38
2023-04-18T18:22:28.106Z,13.33
2023-04-18T18:24:54.870Z,13.26
2023-04-18T18:27:21.352Z,13.19
2023-04-18T18:29:50.750Z,13.13
2023-04-18T18:32:17.315Z,13.06
2023-04-18T18:34:43.896Z,13.03
2023-04-18T18:37:10.415Z,12.98
2023-04-18T18:39:37.247Z,12.96
2023-04-18T18:42:03.972Z,12.90
2023-04-18T18:44:30.657Z,12.85
2023-04-18T18:46:58.748Z,12.80
2023-04-18T18:49:26.388Z,12.73
2023-04-18T18:51:53.275Z,12.65
2023-04-18T18:54:21.013Z,12.61
2023-04-18T18:56:47.567Z,12.57
2023-04-18T18:59:15.654Z,12.51
2023-04-18T19:01:42.586Z,12.45
2023-04-18T19:04:09.690Z,12.40
2023-04-18T19:06:36.363Z,12.35
2023-04-18T19:09:02.880Z,12.30
2023-04-18T19:11:29.626Z,12.26
2023-04-18T19:13:56.117Z,12.20
2023-04-18T19:16:22.731Z,12.13
2023-04-18T19:18:50.487Z,12.10
2023-04-18T19:21:17.380Z,12.09
2023-04-18T19:23:43.936Z,12.05
2023-04-18T19:26:10.548Z,12.01
2023-04-18T19:28:37.003Z,11.98
2023-04-18T19:31:03.747Z,11.97
2023-04-18T19:33:30.374Z,11.94
2023-04-18T19:35:56.965Z,11.93
2023-04-18T19:38:23.468Z,11.89
2023-04-18T19:40:49.901Z,11.86
2023-04-18T19:43:16.432Z,11.80
2023-04-18T19:45:42.908Z,11.75
2023-04-18T19:48:09.557Z,11.74
2023-04-18T19:50:39.399Z,11.72
2023-04-18T19:53:06.412Z,11.69
2023-04-18T19:55:32.925Z,11.66
2023-04-18T19:57:59.879Z,11.64
2023-04-18T20:00:26.407Z,11.60
2023-04-18T20:02:53.461Z,11.55
2023-04-18T20:05:20.409Z,11.53
2023-04-18T20:07:47.018Z,11.48
2023-04-18T20:10:13.593Z,11.47
2023-04-18T20:12:40.105Z,11.42
2023-04-18T20:15:07.320Z,11.39
2023-04-18T20:17:34.734Z,11.38
2023-04-18T20:20:01.737Z,11.33
2023-04-18T20:22:28.226Z,11.29
2023-04-18T20:24:57.173Z,11.24
2023-04-18T20:27:24.162Z,11.22
2023-04-18T20:29:50.760Z,11.18
2023-04-18T20:32:17.223Z,11.17
2023-04-18T20:34:43.816Z,11.13
2023-04-18T20:37:10.330Z,11.08
2023-04-18T20:39:38.241Z,11.04
2023-04-18T20:42:04.897Z,11.03
2023-04-18T20:44:34.321Z,11.01
2023-04-18T20:47:03.488Z,10.99
2023-04-18T20:49:30.110Z,10.94
2023-04-18T20:51:56.639Z,10.90
2023-04-18T20:54:23.384Z,10.87
2023-04-18T20:56:49.918Z,10.82
2023-04-18T20:59:16.392Z,10.80
2023-04-18T21:01:42.917Z,10.77
2023-04-18T21:04:09.690Z,10.75
2023-04-18T21:06:36.745Z,10.73
2023-04-18T21:09:03.871Z,10.69
2023-04-18T21:11:30.394Z,10.68
2023-04-18T21:13:56.882Z,10.65
2023-04-18T21:16:24.099Z,10.61
2023-04-18T21:19:12.717Z,10.59
2023-04-18T21:21:41.081Z,10.59
2023-04-18T21:24:07.884Z,10.55
2023-04-18T21:26:34.620Z,10.52
2023-04-18T21:29:04.170Z,10.50
2023-04-18T21:31:39.162Z,10.47
2023-04-18T21:34:11.803Z,10.44
2023-04-18T21:36:52.283Z,10.38
2023-04-18T21:39:21.990Z,10.38
2023-04-18T21:42:06.980Z,10.37
2023-04-18T21:44:39.441Z,10.34
2023-04-18T21:47:16.411Z,10.32
2023-04-18T21:49:50.841Z,10.28
2023-04-18T21:52:26.849Z,10.25
2023-04-18T21:54:55.990Z,10.22
2023-04-18T21:57:29.276Z,10.22
2023-04-18T22:00:02.646Z,10.20
2023-04-18T22:02:39.991Z,10.18
2023-04-18T22:05:11.813Z,10.14
2023-04-18T22:07:57.304Z,10.12
2023-04-18T22:10:33.832Z,10.09
2023-04-18T22:13:07.059Z,10.06
2023-04-18T22:15:39.399Z,10.06
2023-04-18T22:18:21.055Z,10.05
2023-04-18T22:20:57.897Z,10.02
2023-04-18T22:23:43.073Z,10.00
2023-04-18T22:26:12.496Z,9.95
2023-04-18T22:28:46.746Z,9.91
2023-04-18T22:31:20.960Z,9.88
2023-04-18T22:33:53.234Z,9.85
2023-04-18T22:36:26.369Z,9.81
2023-04-18T22:39:06.232Z,9.80
2023-04-18T22:41:35.370Z,9.77
2023-04-18T22:44:07.033Z,9.76
2023-04-18T22:46:38.170Z,9.76
2023-04-18T22:49:32.272Z,9.72
2023-04-18T22:52:16.258Z,9.70
2023-04-18T22:54:55.479Z,9.66
2023-04-18T22:57:24.887Z,9.62
2023-04-18T23:00:00.147Z,9.60
2023-04-18T23:02:34.478Z,9.59
2023-04-18T23:05:11.723Z,9.57
2023-04-18T23:07:47.585Z,9.55
2023-04-18T23:10:23.392Z,9.51
2023-04-18T23:12:54.183Z,9.49
2023-04-18T23:15:29.436Z,9.45
2023-04-18T23:18:03.917Z,9.43
2023-04-18T23:20:38.566Z,9.42
2023-04-18T23:23:15.337Z,9.40
2023-04-18T23:26:13.486Z,9.37
2023-04-18T23:28:42.256Z,9.36
2023-04-18T23:31:18.012Z,9.33
2023-04-18T23:33:51.401Z,9.32
2023-04-18T23:36:25.480Z,9.31
2023-04-18T23:38:58.154Z,9.29
2023-04-18T23:41:24.819Z,9.26
2023-04-18T23:43:51.544Z,9.26
2023-04-18T23:46:20.604Z,9.24
2023-04-18T23:48:57.755Z,9.24
2023-04-18T23:51:27.150Z,9.23
2023-04-18T23:54:01.398Z,9.21
2023-04-18T23:56:35.967Z,9.18
2023-04-18T23:59:07.144Z,9.18
